createdAt,value
2022-12-06T00:01:23.778Z,4.90
2022-12-06T00:03:56.167Z,4.90
2022-12-06T00:06:27.824Z,4.90
2022-12-06T00:08:56.685Z,4.90
2022-12-06T00:11:31.660Z,4.90
2022-12-06T00:14:05.253Z,4.80
2022-12-06T00:16:34.270Z,4.80
2022-12-06T00:19:01.834Z,4.90
2022-12-06T00:21:31.723Z,4.90
2022-12-06T00:24:02.004Z,4.90
2022-12-06T00:26:30.273Z,4.90
2022-12-06T00:29:01.171Z,4.90
2022-12-06T00:31:30.479Z,4.90
2022-12-06T00:33:58.470Z,4.90
2022-12-06T00:36:30.435Z,5.00
2022-12-06T00:39:01.295Z,5.00
2022-12-06T00:41:29.012Z,5.00
2022-12-06T00:43:56.466Z,5.00
2022-12-06T00:46:27.096Z,5.00
2022-12-06T00:48:55.945Z,5.00
2022-12-06T00:51:25.124Z,5.00
2022-12-06T00:53:53.433Z,5.00
2022-12-06T00:56:20.750Z,5.00
2022-12-06T00:58:48.641Z,5.00
2022-12-06T01:01:23.193Z,4.90
2022-12-06T01:03:53.659Z,5.10
2022-12-06T01:06:26.252Z,5.10
2022-12-06T01:08:55.271Z,5.10
2022-12-06T01:11:22.632Z,5.10
2022-12-06T01:13:51.104Z,5.10
2022-12-06T01:16:24.095Z,5.10
2022-12-06T01:18:57.157Z,5.10
2022-12-06T01:21:25.839Z,5.00
2022-12-06T01:23:56.492Z,5.10
2022-12-06T01:26:30.353Z,5.10
2022-12-06T01:28:59.006Z,5.10
2022-12-06T01:31:30.874Z,5.10
2022-12-06T01:34:03.532Z,5.10
2022-12-06T01:36:30.789Z,5.10
2022-12-06T01:39:01.261Z,5.00
2022-12-06T01:41:29.298Z,5.00
2022-12-06T01:43:57.046Z,5.00
2022-12-06T01:46:58.700Z,5.00
2022-12-06T01:49:32.989Z,5.00
2022-12-06T01:52:09.495Z,4.90
2022-12-06T01:54:37.356Z,4.90
2022-12-06T01:57:07.430Z,4.80
2022-12-06T01:59:35.123Z,4.80
2022-12-06T02:02:02.607Z,4.80
2022-12-06T02:04:31.606Z,4.80
2022-12-06T02:07:01.108Z,4.80
2022-12-06T02:09:29.863Z,4.90
2022-12-06T02:11:57.119Z,4.90
2022-12-06T02:14:29.732Z,4.90
2022-12-06T02:17:11.986Z,4.90
2022-12-06T02:20:27.469Z,4.80
2022-12-06T02:23:03.861Z,4.80
2022-12-06T02:25:58.419Z,4.70
2022-12-06T02:29:01.809Z,4.70
2022-12-06T02:32:19.177Z,4.70
2022-12-06T02:35:05.778Z,4.70
2022-12-06T02:37:58.561Z,4.70
2022-12-06T02:40:41.194Z,4.70
2022-12-06T02:43:22.411Z,4.70
2022-12-06T02:45:54.130Z,4.70
2022-12-06T02:48:23.728Z,4.70
2022-12-06T02:50:59.939Z,4.70
2022-12-06T02:53:29.633Z,4.70
2022-12-06T02:55:58.843Z,4.70
2022-12-06T02:58:26.556Z,4.70
2022-12-06T03:00:57.613Z,4.70
2022-12-06T03:03:43.966Z,4.70
2022-12-06T03:06:17.572Z,4.70
2022-12-06T03:09:06.149Z,4.70
2022-12-06T03:11:55.493Z,4.70
2022-12-06T03:14:25.966Z,4.70
2022-12-06T03:17:08.232Z,4.70
2022-12-06T03:19:38.908Z,4.70
2022-12-06T03:22:12.360Z,4.70
2022-12-06T03:24:41.880Z,4.70
2022-12-06T03:27:12.996Z,4.70
2022-12-06T03:30:09.656Z,4.60
2022-12-06T03:32:39.250Z,4.70
2022-12-06T03:35:11.837Z,4.70
2022-12-06T03:37:43.486Z,4.70
2022-12-06T03:40:35.315Z,4.80
2022-12-06T03:43:04.825Z,4.80
2022-12-06T03:45:52.638Z,4.80
2022-12-06T03:48:27.742Z,4.80
2022-12-06T03:51:00.984Z,4.70
2022-12-06T03:53:28.230Z,4.70
2022-12-06T03:55:55.497Z,4.70
2022-12-06T03:58:22.835Z,4.70
2022-12-06T04:00:50.003Z,4.80
2022-12-06T04:03:17.532Z,4.70
2022-12-06T04:05:44.716Z,4.70
2022-12-06T04:08:11.974Z,4.70
2022-12-06T04:10:39.204Z,4.70
2022-12-06T04:13:06.883Z,4.70
2022-12-06T04:15:39.576Z,4.70
2022-12-06T04:18:16.069Z,4.70
2022-12-06T04:21:12.367Z,4.70
2022-12-06T04:23:41.407Z,4.70
2022-12-06T04:26:11.269Z,4.70
2022-12-06T04:28:57.552Z,4.70
2022-12-06T04:31:43.706Z,4.70
2022-12-06T04:34:29.412Z,4.70
2022-12-06T04:37:15.256Z,4.70
2022-12-06T04:39:42.643Z,4.60
2022-12-06T04:42:28.578Z,4.70
2022-12-06T04:44:55.788Z,4.70
2022-12-06T04:47:23.098Z,4.70
2022-12-06T04:49:50.359Z,4.70
2022-12-06T04:52:18.276Z,4.70
2022-12-06T04:54:47.354Z,4.70
2022-12-06T04:57:16.309Z,4.70
2022-12-06T04:59:46.285Z,4.70
2022-12-06T05:02:15.602Z,4.70
2022-12-06T05:04:42.864Z,4.70
2022-12-06T05:07:11.628Z,4.70
2022-12-06T05:09:39.326Z,4.70
2022-12-06T05:12:07.136Z,4.80
2022-12-06T05:14:34.504Z,4.80
2022-12-06T05:17:01.707Z,4.90
2022-12-06T05:19:29.007Z,4.90
2022-12-06T05:21:56.239Z,4.90
2022-12-06T05:24:23.497Z,4.90
2022-12-06T05:26:50.885Z,4.90
2022-12-06T05:29:18.267Z,4.90
2022-12-06T05:31:45.509Z,4.90
2022-12-06T05:34:12.715Z,4.90
2022-12-06T05:36:40.540Z,4.90
2022-12-06T05:39:07.885Z,4.80
2022-12-06T05:41:35.206Z,4.80
2022-12-06T05:44:02.701Z,4.80
2022-12-06T05:46:29.969Z,4.80
2022-12-06T05:48:57.415Z,4.70
2022-12-06T05:51:24.603Z,4.50
2022-12-06T05:53:51.762Z,4.40
2022-12-06T05:56:19.112Z,4.30
2022-12-06T05:58:46.329Z,4.20
2022-12-06T06:01:13.789Z,4.10
2022-12-06T06:03:46.903Z,4.10
2022-12-06T06:06:15.432Z,4.10
2022-12-06T06:08:42.776Z,4.00
2022-12-06T06:11:10.055Z,4.00
2022-12-06T06:13:37.233Z,4.00
2022-12-06T06:16:04.789Z,4.00
2022-12-06T06:18:32.097Z,4.00
2022-12-06T06:21:00.676Z,4.00
2022-12-06T06:23:28.871Z,4.00
2022-12-06T06:25:56.899Z,4.00
2022-12-06T06:28:24.479Z,4.10
2022-12-06T06:30:51.946Z,4.10
2022-12-06T06:33:19.600Z,4.10
2022-12-06T06:35:46.762Z,4.10
2022-12-06T06:38:13.931Z,4.10
2022-12-06T06:40:41.122Z,4.10
2022-12-06T06:43:23.707Z,4.20
2022-12-06T06:45:55.964Z,4.10
2022-12-06T06:48:25.455Z,4.10
2022-12-06T06:50:57.321Z,4.10
2022-12-06T06:53:28.025Z,4.10
2022-12-06T06:55:55.859Z,4.10
2022-12-06T06:58:23.574Z,4.10
2022-12-06T07:01:01.896Z,4.10
2022-12-06T07:03:29.774Z,4.10
2022-12-06T07:06:00.387Z,4.10
2022-12-06T07:08:29.480Z,4.10
2022-12-06T07:10:56.920Z,4.10
2022-12-06T07:13:26.892Z,4.10
2022-12-06T07:15:54.143Z,4.10
2022-12-06T07:18:22.418Z,4.00
2022-12-06T07:20:58.179Z,4.10
2022-12-06T07:23:25.593Z,4.10
2022-12-06T07:26:07.846Z,4.10
2022-12-06T07:28:40.028Z,4.20
2022-12-06T07:31:12.176Z,4.20
2022-12-06T07:33:40.989Z,4.20
2022-12-06T07:36:13.664Z,4.20
2022-12-06T07:38:43.078Z,4.30
2022-12-06T07:41:31.361Z,4.30
2022-12-06T07:44:18.572Z,4.40
2022-12-06T07:46:46.396Z,4.40
2022-12-06T07:49:18.496Z,4.40
2022-12-06T07:51:46.535Z,4.40
2022-12-06T07:54:14.402Z,4.40
2022-12-06T07:57:07.907Z,4.40
2022-12-06T07:59:35.943Z,4.40
2022-12-06T08:02:04.119Z,4.50
2022-12-06T08:04:31.863Z,4.50
2022-12-06T08:07:00.960Z,4.50
2022-12-06T08:09:28.245Z,4.50
2022-12-06T08:11:55.775Z,4.60
2022-12-06T08:14:23.427Z,4.50
2022-12-06T08:16:50.824Z,4.50
2022-12-06T08:19:17.975Z,4.50
2022-12-06T08:21:45.489Z,4.40
2022-12-06T08:24:12.975Z,4.30
2022-12-06T08:26:40.364Z,4.30
2022-12-06T08:29:07.774Z,4.30
2022-12-06T08:31:35.327Z,4.30
2022-12-06T08:34:03.675Z,4.40
2022-12-06T08:36:31.260Z,4.40
2022-12-06T08:39:00.358Z,4.50
2022-12-06T08:41:45.971Z,4.50
2022-12-06T08:44:15.117Z,4.50
2022-12-06T08:46:43.215Z,4.50
2022-12-06T08:49:10.643Z,4.60
2022-12-06T08:51:37.857Z,4.60
2022-12-06T08:54:07.421Z,4.60
2022-12-06T08:56:36.236Z,4.50
2022-12-06T08:59:03.799Z,4.50
2022-12-06T09:01:37.405Z,4.50
2022-12-06T09:04:10.273Z,4.60
2022-12-06T09:06:40.080Z,4.60
2022-12-06T09:09:08.331Z,4.70
2022-12-06T09:11:36.074Z,4.80
2022-12-06T09:14:03.905Z,4.80
2022-12-06T09:16:31.583Z,4.90
2022-12-06T09:18:58.960Z,4.90
2022-12-06T09:21:33.123Z,4.80
2022-12-06T09:24:01.051Z,4.80
2022-12-06T09:26:28.878Z,4.80
2022-12-06T09:28:57.256Z,4.70
2022-12-06T09:31:25.897Z,4.70
2022-12-06T09:33:53.267Z,4.70
2022-12-06T09:36:31.809Z,4.70
2022-12-06T09:39:14.489Z,4.70
2022-12-06T09:41:57.123Z,4.70
2022-12-06T09:44:40.679Z,4.70
2022-12-06T09:47:15.966Z,4.70
2022-12-06T09:50:17.166Z,4.70
2022-12-06T09:53:16.577Z,4.80
2022-12-06T09:55:49.915Z,4.80
2022-12-06T09:58:46.498Z,4.80
2022-12-06T10:01:31.545Z,4.80
2022-12-06T10:05:06.364Z,4.80
2022-12-06T10:07:42.768Z,4.80
2022-12-06T10:10:55.560Z,4.90
2022-12-06T10:13:51.669Z,4.80
2022-12-06T10:16:44.983Z,4.80
2022-12-06T10:19:43.381Z,4.90
2022-12-06T10:22:30.277Z,4.90
2022-12-06T10:25:24.067Z,4.90
2022-12-06T10:28:00.489Z,4.90
2022-12-06T10:30:27.932Z,5.00
2022-12-06T10:33:27.149Z,5.10
2022-12-06T10:36:00.337Z,5.00
2022-12-06T10:38:39.275Z,5.00
2022-12-06T10:41:15.245Z,5.00
2022-12-06T10:44:07.777Z,5.00
2022-12-06T10:47:01.542Z,5.00
2022-12-06T10:49:48.259Z,5.00
2022-12-06T10:52:30.798Z,5.00
2022-12-06T10:55:10.544Z,5.00
2022-12-06T10:57:48.416Z,5.00
2022-12-06T11:00:18.245Z,5.00
2022-12-06T11:03:13.851Z,5.00
2022-12-06T11:06:54.346Z,5.10
2022-12-06T11:09:42.057Z,5.10
2022-12-06T11:12:31.516Z,5.20
2022-12-06T11:15:13.308Z,5.20
2022-12-06T11:17:45.151Z,5.30
2022-12-06T11:20:30.023Z,5.30
2022-12-06T11:23:06.229Z,5.30
2022-12-06T11:25:37.192Z,5.30
2022-12-06T11:28:22.153Z,5.30
2022-12-06T11:30:53.467Z,5.30
2022-12-06T11:33:24.849Z,5.30
2022-12-06T11:35:52.307Z,5.20
2022-12-06T11:38:19.571Z,5.10
2022-12-06T11:40:50.624Z,5.10
2022-12-06T11:43:24.469Z,5.00
2022-12-06T11:45:51.738Z,5.00
2022-12-06T11:48:22.147Z,5.00
2022-12-06T11:50:52.373Z,5.00
2022-12-06T11:53:53.724Z,5.00
2022-12-06T11:56:30.362Z,5.00
2022-12-06T11:59:21.976Z,5.10
2022-12-06T12:01:51.618Z,5.10
2022-12-06T12:04:26.667Z,5.10
2022-12-06T12:07:10.096Z,5.10
2022-12-06T12:09:46.580Z,5.20
2022-12-06T12:12:17.815Z,5.20
2022-12-06T12:14:54.190Z,5.30
2022-12-06T12:17:25.612Z,5.30
2022-12-06T12:20:44.802Z,5.40
2022-12-06T12:23:31.560Z,5.50
2022-12-06T12:26:24.962Z,5.50
2022-12-06T12:29:16.256Z,5.40
2022-12-06T12:31:58.980Z,5.40
2022-12-06T12:34:28.643Z,5.30
2022-12-06T12:36:59.162Z,5.30
2022-12-06T12:39:46.304Z,5.30
2022-12-06T12:42:33.053Z,5.40
2022-12-06T12:45:03.633Z,5.50
2022-12-06T12:47:32.091Z,5.40
2022-12-06T12:50:13.392Z,5.20
2022-12-06T12:52:41.946Z,4.90
2022-12-06T12:55:20.089Z,4.70
2022-12-06T12:57:49.878Z,4.60
2022-12-06T13:00:18.361Z,4.60
2022-12-06T13:02:57.532Z,4.50
2022-12-06T13:05:44.945Z,4.60
2022-12-06T13:08:22.182Z,4.60
2022-12-06T13:10:58.479Z,4.60
2022-12-06T13:13:47.938Z,4.60
2022-12-06T13:16:19.840Z,4.60
2022-12-06T13:18:57.980Z,4.50
2022-12-06T13:21:41.311Z,4.50
2022-12-06T13:24:13.224Z,4.50
2022-12-06T13:26:44.569Z,4.50
2022-12-06T13:29:20.924Z,4.60
2022-12-06T13:31:50.856Z,4.60
2022-12-06T13:34:39.055Z,4.60
2022-12-06T13:37:43.614Z,4.70
2022-12-06T13:40:35.511Z,4.70
2022-12-06T13:43:26.789Z,4.80
2022-12-06T13:46:09.546Z,4.80
2022-12-06T13:48:37.935Z,4.90
2022-12-06T13:51:35.952Z,5.00
2022-12-06T13:54:06.311Z,5.00
2022-12-06T13:56:33.690Z,5.10
2022-12-06T13:59:24.289Z,5.10
2022-12-06T14:01:57.149Z,5.10
2022-12-06T14:04:49.081Z,5.10
2022-12-06T14:07:33.816Z,5.10
2022-12-06T14:10:13.025Z,5.10
2022-12-06T14:12:40.616Z,5.10
2022-12-06T14:15:18.034Z,5.10
2022-12-06T14:18:04.336Z,5.00
2022-12-06T14:20:34.347Z,5.00
2022-12-06T14:23:01.655Z,5.00
2022-12-06T14:25:30.493Z,4.90
2022-12-06T14:28:13.016Z,5.00
2022-12-06T14:30:40.755Z,5.00
2022-12-06T14:33:39.160Z,5.00
2022-12-06T14:36:17.226Z,4.90
2022-12-06T14:38:52.302Z,4.90
2022-12-06T14:41:39.542Z,4.90
2022-12-06T14:44:15.727Z,4.80
2022-12-06T14:46:45.831Z,4.80
2022-12-06T14:49:40.455Z,4.70
2022-12-06T14:52:24.057Z,4.70
2022-12-06T14:54:52.406Z,4.70
2022-12-06T14:57:31.306Z,4.60
2022-12-06T15:00:25.401Z,4.60
2022-12-06T15:03:02.052Z,4.60
2022-12-06T15:05:44.277Z,4.50
2022-12-06T15:08:39.296Z,4.50
2022-12-06T15:11:12.653Z,4.40
2022-12-06T15:13:40.530Z,4.40
2022-12-06T15:16:11.834Z,4.30
2022-12-06T15:18:59.343Z,4.30
2022-12-06T15:21:27.411Z,4.30
2022-12-06T15:23:56.139Z,4.30
2022-12-06T15:26:25.195Z,4.30
2022-12-06T15:28:52.672Z,4.30
2022-12-06T15:31:28.900Z,4.30
2022-12-06T15:33:56.344Z,4.30
2022-12-06T15:36:27.315Z,4.30
2022-12-06T15:38:54.573Z,4.30
2022-12-06T15:41:27.765Z,4.40
2022-12-06T15:43:57.694Z,4.50
2022-12-06T15:46:28.447Z,4.50
2022-12-06T15:48:56.544Z,4.50
2022-12-06T15:51:27.265Z,4.50
2022-12-06T15:53:57.201Z,4.50
2022-12-06T15:56:28.103Z,4.50
2022-12-06T15:58:55.467Z,4.50
2022-12-06T16:01:25.661Z,4.50
2022-12-06T16:03:54.867Z,4.40
2022-12-06T16:06:24.002Z,4.40
2022-12-06T16:08:53.917Z,4.50
2022-12-06T16:11:24.014Z,4.40
2022-12-06T16:17:58.475Z,4.30
2022-12-06T16:20:31.777Z,4.30
2022-12-06T16:23:19.435Z,4.30
2022-12-06T16:25:47.339Z,4.30
2022-12-06T16:28:15.261Z,4.20
2022-12-06T16:30:42.618Z,4.20
2022-12-06T16:33:16.909Z,4.20
2022-12-06T16:35:44.637Z,4.10
2022-12-06T16:38:16.972Z,4.10
2022-12-06T16:40:45.292Z,4.10
2022-12-06T16:43:13.061Z,4.10
2022-12-06T16:45:43.484Z,4.10
2022-12-06T16:48:17.954Z,4.00
2022-12-06T16:50:47.259Z,4.00
2022-12-06T16:53:17.767Z,4.00
2022-12-06T16:55:45.303Z,4.00
2022-12-06T16:58:12.869Z,3.90
2022-12-06T17:00:40.230Z,3.90
2022-12-06T17:03:07.503Z,3.90
2022-12-06T17:05:35.097Z,3.80
2022-12-06T17:08:02.576Z,3.90
2022-12-06T17:10:29.808Z,3.80
2022-12-06T17:12:57.504Z,3.80
2022-12-06T17:15:24.825Z,3.80
2022-12-06T17:17:52.116Z,3.80
2022-12-06T17:20:20.513Z,3.80
2022-12-06T17:22:48.147Z,3.80
2022-12-06T17:25:16.388Z,3.80
2022-12-06T17:27:44.160Z,3.80
2022-12-06T17:30:17.844Z,3.80
2022-12-06T17:33:10.957Z,3.90
2022-12-06T17:35:40.169Z,3.90
2022-12-06T17:38:07.994Z,3.80
2022-12-06T17:40:35.526Z,3.80
2022-12-06T17:43:02.839Z,3.80
2022-12-06T17:45:30.323Z,3.80
2022-12-06T17:47:57.664Z,3.70
2022-12-06T17:50:24.935Z,3.70
2022-12-06T17:52:52.263Z,3.60
2022-12-06T17:55:19.975Z,3.60
2022-12-06T17:57:47.291Z,3.60
2022-12-06T18:00:16.691Z,3.50
2022-12-06T18:02:44.022Z,3.30
2022-12-06T18:05:11.265Z,3.20
2022-12-06T18:07:38.738Z,3.10
2022-12-06T18:10:09.556Z,3.10
2022-12-06T18:12:36.766Z,3.00
2022-12-06T18:15:24.756Z,3.00
2022-12-06T18:17:52.610Z,3.00
2022-12-06T18:20:49.673Z,3.00
2022-12-06T18:24:13.082Z,2.90
2022-12-06T18:26:39.085Z,3.10
2022-12-06T18:29:07.289Z,3.00
2022-12-06T18:31:36.130Z,3.00
2022-12-06T18:34:03.632Z,3.00
2022-12-06T18:36:31.399Z,3.00
2022-12-06T18:39:07.361Z,2.90
2022-12-06T18:41:37.309Z,2.80
2022-12-06T18:44:19.787Z,2.80
2022-12-06T18:46:51.224Z,2.80
2022-12-06T18:49:21.605Z,2.80
2022-12-06T18:51:48.877Z,2.70
2022-12-06T18:54:16.008Z,2.70
2022-12-06T18:56:43.333Z,2.60
2022-12-06T18:59:11.903Z,2.60
2022-12-06T19:01:40.398Z,2.60
2022-12-06T19:04:09.560Z,2.60
2022-12-06T19:06:38.437Z,2.60
2022-12-06T19:09:11.060Z,2.60
2022-12-06T19:11:43.257Z,2.60
2022-12-06T19:14:10.923Z,2.60
2022-12-06T19:16:42.472Z,2.60
2022-12-06T19:19:17.044Z,2.70
2022-12-06T19:21:49.969Z,2.70
2022-12-06T19:24:22.258Z,2.70
2022-12-06T19:26:52.070Z,2.80
2022-12-06T19:29:20.106Z,2.80
2022-12-06T19:31:47.605Z,2.90
2022-12-06T19:34:17.302Z,2.90
2022-12-06T19:36:45.026Z,3.00
2022-12-06T19:39:15.346Z,3.00
2022-12-06T19:42:01.603Z,3.10
2022-12-06T19:44:29.429Z,3.10
2022-12-06T19:46:57.526Z,3.20
2022-12-06T19:49:26.442Z,3.20
2022-12-06T19:51:53.877Z,3.20
2022-12-06T19:54:25.069Z,3.20
2022-12-06T19:56:54.589Z,3.20
2022-12-06T19:59:27.057Z,3.20
2022-12-06T20:02:01.505Z,3.20
2022-12-06T20:04:31.957Z,3.10
2022-12-06T20:06:59.695Z,3.10
2022-12-06T20:09:29.402Z,3.10
2022-12-06T20:12:01.828Z,3.10
2022-12-06T20:14:54.880Z,3.10
2022-12-06T20:17:29.108Z,3.10
2022-12-06T20:20:03.000Z,3.10
2022-12-06T20:22:31.423Z,3.10
2022-12-06T20:24:58.738Z,3.10
2022-12-06T20:27:46.150Z,3.10
2022-12-06T20:30:14.209Z,3.20
2022-12-06T20:32:45.926Z,3.20
2022-12-06T20:35:13.189Z,3.20
2022-12-06T20:37:43.917Z,3.30
2022-12-06T20:40:11.678Z,3.30
2022-12-06T20:42:38.802Z,3.30
2022-12-06T20:45:07.923Z,3.30
2022-12-06T20:47:37.899Z,3.40
2022-12-06T20:50:11.253Z,3.30
2022-12-06T20:52:40.684Z,3.30
2022-12-06T20:55:08.284Z,3.20
2022-12-06T20:57:41.736Z,3.20
2022-12-06T21:00:12.326Z,3.10
2022-12-06T21:02:41.623Z,3.10
2022-12-06T21:05:09.131Z,3.10
2022-12-06T21:07:37.602Z,3.00
2022-12-06T21:10:06.922Z,3.00
2022-12-06T21:12:35.466Z,3.00
2022-12-06T21:15:02.661Z,3.00
2022-12-06T21:17:33.219Z,3.00
2022-12-06T21:20:00.782Z,3.00
2022-12-06T21:22:28.061Z,3.10
2022-12-06T21:24:56.800Z,3.10
2022-12-06T21:27:24.063Z,3.20
2022-12-06T21:29:51.607Z,3.20
2022-12-06T21:32:18.781Z,3.20
2022-12-06T21:34:46.741Z,3.20
2022-12-06T21:37:14.136Z,3.20
2022-12-06T21:39:41.757Z,3.20
2022-12-06T21:42:14.434Z,3.20
2022-12-06T21:44:45.569Z,3.20
2022-12-06T21:47:13.086Z,3.20
2022-12-06T21:49:42.629Z,3.20
2022-12-06T21:52:09.888Z,3.20
2022-12-06T21:54:39.900Z,3.30
2022-12-06T21:57:07.961Z,3.30
2022-12-06T21:59:52.442Z,3.30
2022-12-06T22:02:23.384Z,3.30
2022-12-06T22:04:54.128Z,3.30
2022-12-06T22:07:30.585Z,3.40
2022-12-06T22:09:58.242Z,3.40
2022-12-06T22:12:25.606Z,3.40
2022-12-06T22:14:53.164Z,3.40
2022-12-06T22:17:23.671Z,3.40
2022-12-06T22:19:54.820Z,3.30
2022-12-06T22:22:22.836Z,3.20
2022-12-06T22:24:54.234Z,3.10
2022-12-06T22:27:27.932Z,3.00
2022-12-06T22:29:56.618Z,3.00
2022-12-06T22:32:25.236Z,3.00
2022-12-06T22:34:53.261Z,2.90
2022-12-06T22:37:25.326Z,2.90
2022-12-06T22:39:56.379Z,2.90
2022-12-06T22:42:23.515Z,2.80
2022-12-06T22:44:51.247Z,2.90
2022-12-06T22:47:18.624Z,2.90
2022-12-06T22:49:48.136Z,2.90
2022-12-06T22:52:15.555Z,3.00
2022-12-06T22:54:50.583Z,3.00
2022-12-06T22:57:17.884Z,3.00
2022-12-06T22:59:45.721Z,3.00
2022-12-06T23:02:12.982Z,3.00
2022-12-06T23:04:40.172Z,3.00
2022-12-06T23:07:07.419Z,2.90
2022-12-06T23:09:35.223Z,2.90
2022-12-06T23:12:02.459Z,2.90
2022-12-06T23:14:29.639Z,2.90
2022-12-06T23:16:58.052Z,3.00
2022-12-06T23:19:25.371Z,2.90
2022-12-06T23:21:52.610Z,2.80
2022-12-06T23:24:19.731Z,2.70
2022-12-06T23:26:51.973Z,2.70
2022-12-06T23:29:23.431Z,2.70
2022-12-06T23:31:50.691Z,2.60
2022-12-06T23:34:22.518Z,2.60
2022-12-06T23:36:50.282Z,2.60
2022-12-06T23:39:17.960Z,2.70
2022-12-06T23:41:45.510Z,2.70
2022-12-06T23:44:13.681Z,2.70
2022-12-06T23:46:42.411Z,2.70
2022-12-06T23:49:19.298Z,2.70
2022-12-06T23:51:46.651Z,2.70
2022-12-06T23:54:14.879Z,2.80
2022-12-06T23:56:43.620Z,2.80
2022-12-06T23:59:30.946Z,2.80
